Timeline UpdatesTrip UpdatesNews PostsPvt PostsTravel TipsAdmin PostsConv PostsFollowed PostsChat RequestsBlog PostsPNR Posts

Disclaimer
Search
 
 
Thu Oct 2, 2014 05:55:42 ISTHomeTrainsΣChainsAtlasPNRForumGalleryNewsFAQTripsMembersLoginFeedback
No Recent News for this Train
Other Trains in the News **new
Latest...
⇐ Return Journey: Train# 37917

37918/Katwa-Howrah Local

Time-Table HAS CHANGED.
Sep 05 (7:59AM)
Change Departure Station:
Change Arrival Station:
Post a Train Travel TipPost a Train Travel Tip **new
Post a Comment/Question/Picture/VideoPost a Comment/Question/Picture/Video
Pantry/Catering
✕ NO Pantry Car
✕ NO Catering
RSA - Rake Sharing
Rake/Coach Composition
Loco
News    PNR    Forum    Time-Table    Availability    Fare Chart    Map    Arr/Dep History    Trips    Gallery    ΣChains    X/O    Timeline    
Travel Time: 0h 18m    5 halts    Distance: 14 km    Avg Speed: 46 km/hr
Type: EMU - Kolkata
Zone: ER/Eastern
Departs @ 09:36 (Avg 6m late)
Platform# ???
SMTWTFS
Seoraphuli Junction/SHE 
Arrives @ 09:54 (Avg 2m late)
Platform# ???
SMTWTFS
Bally/BLY 

5 halts. 5 intermediate Stations between Seoraphuli Junction and Bally

Show ALL intermediate Stations  Show Old Time-Table

#CodeStation NameX/OArrivesAvgDepartsAvgHaltPFDay#KmSpeedElevZoneAddress
1KWAEKatwa Junction (5)  -06:50+0--1-122.45921mERDist - Bardhaman, West Bengal
2DHAEDainhat (4)  06:57+006:58+01m--1-115.510219mERDaihaat Rd, West Bengal
3SHBASahebtala  07:00-07:01-1m--1-112.14118mERSahebtala, West Bengal
4AGAEAgradwip (2)  07:05-107:06+01m--1-109.45818mERDist - Bardhaman, West Bengal
5PTAEPatuli (2)  07:09 07:11-107:10 07:15+01 4m--1-104.56018mERDist - bardhaman, West Bengal
6BQYBelerhat  07:14 07:20-07:15 07:21-1m--1-99.58219mERJajneswarpur, West Bengal
7LKXLakshmipur (2)  07:17 07:23-407:18 07:24+11m--1-96.79414mERDist - burdhaman, West Bengal
8MTFAMertala Phaleya  07:20 07:26-07:21 07:27-1m--1-93.69016mERMertala Phaleya, West Bengal
9PSAEPurbasthali (2)  07:23 07:29+207:24 07:30+21m--1-90.67119mERDist - Bardhaman, West Bengal
10BFZBhandartikuri  07:26 07:32+307:27 07:33+31m--1-88.25221mERDist - Bardhaman, West Bengal
11NDAENabadwip Dham (3)  07:33 07:39+207:35 07:40+32 1m--1-83.06415mERDist - Nadia, West Bengal
12KLNTKalinagar (1)  07:38 07:44+407:39 07:45+41m11-78.7459mERDist - Nadia, West Bengal
13SMAESamudra Garh  07:49 07:50+407:50 07:51+81m--1-75.03316mERDist - Bardhaman, West Bengal
14DTAEDhatrigram (4)  07:59 08:03-308:00 08:04+01m--1-68.39216mERDhatrigram, West Bengal
15BGRABaghnapara (2)  08:03 08:07-08:04 08:08-1m--1-63.78016mERKalna-Memari Rd, West Bengal
16ABKAAmbika Kalna (4)  08:07 08:11+608:08 08:12+61m--1-59.78612mERKalna, West Bengal
17GPAEGuptipara  08:13 08:17+608:14 08:18+61m--1-52.66814mERGuptipara Railway Station, West Bengal
18BHLABehula  08:16 08:20-08:17 08:21-1m--1-50.39716mERDist - Hooghly, West Bengal
19SOAESomra Bazar (2)  08:20 08:24-08:21 08:25-1m--1-45.58413mERState Highway 6, West Bengal
20BGAEBalagarh  08:23 08:27-08:24 08:28-1m--1-42.74913mERBalagarh, West Bengal
21JITJirat (3)  08:26 08:32+808:27 08:33+81m--1-39.410415mERdist - hooghly, West Bengal
22KMAEKhamargachhi  08:31 08:36+1008:32 08:37+101m--1-34.212014mERKhamargachi, West Bengal
23DMLEDumurdaha  08:34 08:38-08:35 08:39-1m--1-32.26515mERDumurdahadham, West Bengal
24KJUKuntighat  08:37 08:42-08:38 08:43-1m--1-28.910017mERKuntighat Railway Station, West Bengal
25TBAETribeni  08:41 08:45+1108:42 08:46+111m--1-25.67416mERTribeni, West Bengal
26BSAEBansh Baria  08:45 08:49+1308:46 08:50+131m--1-21.92113mERBansberia, West Bengal
27BDCBandel Junction (7)  09:03+209:14+011m--1-17.45814mERdist - HOOGHLY, West Bengal
28HGYHooghly (3)  09:16-09:17-1m--1-15.55414mERDist - Hooghly, West Bengal
29CNSChuchura (3)  09:19-09:20-1m--1-13.79015mERDist - HOOGHLY - 712102, West Bengal
30CGRChandan Nagar (3)  09:22+409:23+41m--1-10.614216mERDist -HOOGHLY - 712136, West Bengal
31MUUMankundu (3)  09:24-09:25-1m--1-8.36713mERChandannagar, West Bengal
32BHRBhadreshwar (3)  09:27+609:28+61m--1-6.17514mERBhadreswar, West Bengal
33BBAEBaidyabati (3)  09:32 09:31-09:33 09:32-1m--1-2.34613mERBaidyabati, West Bengal
34SHESeoraphuli Junction (6)»  09:35+609:36+61m--10.07613mERBaidyabati, West Bengal
35SRPSerampore (4)  09:38+709:39+71m--12.56411mERdist - hooghly, West Bengal
36RISRishra (3)  09:42-09:43-1m--15.74411mERRishra, West Bengal
37KOGKonnagar (3)  09:47+609:48+61m--18.710910mERDist: Howrah, West Bengal
38HMZHind Motor (3)  09:49+009:50+01m--110.5549mERHindmotor, West Bengal
39UPAUttarpara (3)  09:51 09:52+009:52 09:53+01m--112.3819mERDist - Hooghly, West Bengal
40BLYBally (6)•  09:53 09:54+209:54 09:55+21m--113.6618mERDist - Howrah, West Bengal
41BEQBelur (5)  09:56 09:57+309:57 09:58+31m--115.7338mERHowrah, West Bengal
42LLHLiluah (5)  09:59 10:01+610:00 10:02+61m--117.31510mERHowrah, West Bengal
43HWHKolkata Howrah Junction (23)  10:20+4---121.9-10mERHowrah 711101, West Bengal
Scroll to Top
Scroll to Bottom